sensor_id;sensor_type;location;lat;lon;timestamp;pressure;altitude;pressure_sealevel;temperature;humidity
79461;BME280;68929;42.666;23.324;2023-09-30T00:00:44;94998.84;;;19.40;nan
79461;BME280;68929;42.666;23.324;2023-09-30T00:03:10;94968.84;;;19.43;nan
79461;BME280;68929;42.666;23.324;2023-09-30T00:05:38;94981.22;;;19.49;nan
79461;BME280;68929;42.666;23.324;2023-09-30T00:08:04;94991.44;;;19.52;nan
79461;BME280;68929;42.666;23.324;2023-09-30T00:10:30;94975.81;;;19.44;nan
79461;BME280;68929;42.666;23.324;2023-09-30T00:12:56;94967.53;;;19.04;nan
79461;BME280;68929;42.666;23.324;2023-09-30T00:15:22;94974.81;;;18.77;nan
79461;BME280;68929;42.666;23.324;2023-09-30T00:17:48;94987.59;;;19.01;nan
79461;BME280;68929;42.666;23.324;2023-09-30T00:20:13;94992.19;;;19.11;nan
79461;BME280;68929;42.666;23.324;2023-09-30T00:22:40;94984.72;;;19.13;nan
79461;BME280;68929;42.666;23.324;2023-09-30T00:25:06;94962.53;;;18.22;nan
79461;BME280;68929;42.666;23.324;2023-09-30T00:27:32;94956.16;;;18.28;nan
79461;BME280;68929;42.666;23.324;2023-09-30T00:29:57;94963.53;;;18.43;nan
79461;BME280;68929;42.666;23.324;2023-09-30T00:32:23;94977.03;;;18.85;nan
79461;BME280;68929;42.666;23.324;2023-09-30T00:34:48;94975.41;;;18.84;nan
79461;BME280;68929;42.666;23.324;2023-09-30T00:37:14;94976.13;;;19.11;nan
79461;BME280;68929;42.666;23.324;2023-09-30T00:39:39;94964.84;;;19.09;nan
79461;BME280;68929;42.666;23.324;2023-09-30T00:42:05;94983.09;;;19.12;nan
79461;BME280;68929;42.666;23.324;2023-09-30T00:44:30;94982.63;;;19.20;nan
79461;BME280;68929;42.666;23.324;2023-09-30T00:46:56;94984.25;;;19.26;nan
79461;BME280;68929;42.666;23.324;2023-09-30T00:49:25;94977.22;;;19.15;nan
79461;BME280;68929;42.666;23.324;2023-09-30T00:51:51;94949.47;;;19.31;nan
79461;BME280;68929;42.666;23.324;2023-09-30T00:54:17;94972.03;;;19.35;nan
79461;BME280;68929;42.666;23.324;2023-09-30T00:56:45;94974.81;;;19.50;nan
79461;BME280;68929;42.666;23.324;2023-09-30T00:59:14;94960.31;;;19.51;nan
79461;BME280;68929;42.666;23.324;2023-09-30T01:01:44;94975.59;;;19.51;nan
79461;BME280;68929;42.666;23.324;2023-09-30T01:04:14;94974.81;;;19.50;nan
79461;BME280;68929;42.666;23.324;2023-09-30T01:06:40;94963.53;;;19.53;nan
79461;BME280;68929;42.666;23.324;2023-09-30T01:09:07;94978.56;;;19.54;nan
79461;BME280;68929;42.666;23.324;2023-09-30T01:11:32;94946.69;;;19.16;nan
79461;BME280;68929;42.666;23.324;2023-09-30T01:13:58;94935.47;;;19.19;nan
79461;BME280;68929;42.666;23.324;2023-09-30T01:16:23;94947.31;;;19.33;nan
79461;BME280;68929;42.666;23.324;2023-09-30T01:18:49;94964.25;;;19.39;nan
79461;BME280;68929;42.666;23.324;2023-09-30T01:21:14;94966.13;;;19.38;nan
79461;BME280;68929;42.666;23.324;2023-09-30T01:23:40;94954.22;;;19.24;nan
79461;BME280;68929;42.666;23.324;2023-09-30T01:26:11;94965.63;;;19.41;nan
79461;BME280;68929;42.666;23.324;2023-09-30T01:28:37;94960.41;;;19.25;nan
79461;BME280;68929;42.666;23.324;2023-09-30T01:31:03;94948.38;;;19.27;nan
79461;BME280;68929;42.666;23.324;2023-09-30T01:33:29;94973.31;;;19.33;nan
79461;BME280;68929;42.666;23.324;2023-09-30T01:35:56;94960.78;;;19.38;nan
79461;BME280;68929;42.666;23.324;2023-09-30T01:38:21;94949.84;;;19.08;nan
79461;BME280;68929;42.666;23.324;2023-09-30T01:40:47;94953.28;;;19.35;nan
79461;BME280;68929;42.666;23.324;2023-09-30T01:43:13;94950.00;;;19.33;nan
79461;BME280;68929;42.666;23.324;2023-09-30T01:45:40;94974.50;;;19.47;nan
79461;BME280;68929;42.666;23.324;2023-09-30T01:48:06;94966.22;;;19.48;nan
79461;BME280;68929;42.666;23.324;2023-09-30T01:50:31;94953.34;;;19.50;nan
79461;BME280;68929;42.666;23.324;2023-09-30T01:52:56;94957.66;;;19.56;nan
79461;BME280;68929;42.666;23.324;2023-09-30T01:55:22;94950.16;;;19.58;nan
79461;BME280;68929;42.666;23.324;2023-09-30T01:57:48;94947.22;;;19.60;nan
79461;BME280;68929;42.666;23.324;2023-09-30T02:00:13;94956.13;;;19.75;nan
79461;BME280;68929;42.666;23.324;2023-09-30T02:02:39;94956.41;;;19.84;nan
79461;BME280;68929;42.666;23.324;2023-09-30T02:05:05;94958.81;;;19.80;nan
79461;BME280;68929;42.666;23.324;2023-09-30T02:07:33;94962.25;;;19.66;nan
79461;BME280;68929;42.666;23.324;2023-09-30T02:09:59;94953.94;;;19.67;nan
79461;BME280;68929;42.666;23.324;2023-09-30T02:12:29;94938.81;;;19.41;nan
79461;BME280;68929;42.666;23.324;2023-09-30T02:14:54;94952.69;;;19.33;nan
79461;BME280;68929;42.666;23.324;2023-09-30T02:17:20;94940.72;;;19.46;nan
79461;BME280;68929;42.666;23.324;2023-09-30T02:19:46;94930.59;;;19.16;nan
79461;BME280;68929;42.666;23.324;2023-09-30T02:22:12;94959.59;;;19.19;nan
79461;BME280;68929;42.666;23.324;2023-09-30T02:24:37;94940.47;;;19.05;nan
79461;BME280;68929;42.666;23.324;2023-09-30T02:27:05;94946.63;;;19.06;nan
79461;BME280;68929;42.666;23.324;2023-09-30T02:29:31;94966.50;;;19.15;nan
79461;BME280;68929;42.666;23.324;2023-09-30T02:31:56;94921.81;;;18.84;nan
79461;BME280;68929;42.666;23.324;2023-09-30T02:34:22;94969.22;;;19.20;nan
79461;BME280;68929;42.666;23.324;2023-09-30T02:36:47;94959.50;;;19.09;nan
79461;BME280;68929;42.666;23.324;2023-09-30T02:39:13;94950.47;;;19.20;nan
79461;BME280;68929;42.666;23.324;2023-09-30T02:41:42;94959.00;;;19.12;nan
79461;BME280;68929;42.666;23.324;2023-09-30T02:44:07;94965.88;;;18.98;nan
79461;BME280;68929;42.666;23.324;2023-09-30T02:46:33;94959.16;;;19.00;nan
79461;BME280;68929;42.666;23.324;2023-09-30T02:49:00;94946.47;;;18.86;nan
79461;BME280;68929;42.666;23.324;2023-09-30T02:51:25;94960.41;;;18.83;nan
79461;BME280;68929;42.666;23.324;2023-09-30T02:53:51;94965.88;;;18.98;nan
79461;BME280;68929;42.666;23.324;2023-09-30T02:56:16;94952.44;;;18.93;nan
79461;BME280;68929;42.666;23.324;2023-09-30T02:58:42;94943.41;;;19.04;nan
79461;BME280;68929;42.666;23.324;2023-09-30T03:01:08;94952.72;;;18.96;nan
79461;BME280;68929;42.666;23.324;2023-09-30T03:03:35;94950.22;;;18.85;nan
79461;BME280;68929;42.666;23.324;2023-09-30T03:06:00;94949.00;;;18.66;nan
79461;BME280;68929;42.666;23.324;2023-09-30T03:08:26;94967.47;;;18.94;nan
79461;BME280;68929;42.666;23.324;2023-09-30T03:10:51;94956.06;;;18.77;nan
79461;BME280;68929;42.666;23.324;2023-09-30T03:13:18;94943.63;;;18.61;nan
79461;BME280;68929;42.666;23.324;2023-09-30T03:15:44;94947.97;;;18.67;nan
79461;BME280;68929;42.666;23.324;2023-09-30T03:18:09;94938.28;;;18.61;nan
79461;BME280;68929;42.666;23.324;2023-09-30T03:20:36;94967.91;;;18.86;nan
79461;BME280;68929;42.666;23.324;2023-09-30T03:23:05;94948.59;;;18.84;nan
79461;BME280;68929;42.666;23.324;2023-09-30T03:25:30;94954.72;;;18.74;nan
79461;BME280;68929;42.666;23.324;2023-09-30T03:27:56;94950.72;;;18.77;nan
79461;BME280;68929;42.666;23.324;2023-09-30T03:30:22;94955.31;;;18.81;nan
79461;BME280;68929;42.666;23.324;2023-09-30T03:32:47;94960.91;;;18.80;nan
79461;BME280;68929;42.666;23.324;2023-09-30T03:35:13;94949.00;;;18.61;nan
79461;BME280;68929;42.666;23.324;2023-09-30T03:37:47;94946.41;;;18.76;nan
79461;BME280;68929;42.666;23.324;2023-09-30T03:40:14;94953.06;;;18.73;nan
79461;BME280;68929;42.666;23.324;2023-09-30T03:42:43;94939.09;;;18.34;nan
79461;BME280;68929;42.666;23.324;2023-09-30T03:45:10;94949.75;;;18.56;nan
79461;BME280;68929;42.666;23.324;2023-09-30T03:47:40;94940.34;;;18.54;nan
79461;BME280;68929;42.666;23.324;2023-09-30T03:50:06;94941.19;;;18.59;nan
79461;BME280;68929;42.666;23.324;2023-09-30T03:52:39;94945.72;;;18.59;nan
79461;BME280;68929;42.666;23.324;2023-09-30T03:55:05;94927.44;;;18.46;nan
79461;BME280;68929;42.666;23.324;2023-09-30T03:57:35;94944.81;;;18.75;nan
79461;BME280;68929;42.666;23.324;2023-09-30T04:00:00;94923.09;;;18.40;nan
79461;BME280;68929;42.666;23.324;2023-09-30T04:02:26;94944.81;;;18.16;nan
79461;BME280;68929;42.666;23.324;2023-09-30T04:04:52;94939.03;;;18.29;nan
79461;BME280;68929;42.666;23.324;2023-09-30T04:07:19;94968.69;;;18.50;nan
79461;BME280;68929;42.666;23.324;2023-09-30T04:09:45;94948.88;;;18.51;nan
79461;BME280;68929;42.666;23.324;2023-09-30T04:12:11;94967.41;;;18.57;nan
79461;BME280;68929;42.666;23.324;2023-09-30T04:14:36;94941.81;;;18.40;nan
79461;BME280;68929;42.666;23.324;2023-09-30T04:17:02;94946.38;;;18.12;nan
79461;BME280;68929;42.666;23.324;2023-09-30T04:19:29;94961.72;;;18.22;nan
79461;BME280;68929;42.666;23.324;2023-09-30T04:21:55;94944.50;;;17.86;nan
79461;BME280;68929;42.666;23.324;2023-09-30T04:24:20;94958.41;;;17.88;nan
79461;BME280;68929;42.666;23.324;2023-09-30T04:26:46;94975.75;;;18.07;nan
79461;BME280;68929;42.666;23.324;2023-09-30T04:29:11;94956.94;;;18.02;nan
79461;BME280;68929;42.666;23.324;2023-09-30T04:31:37;94980.72;;;18.25;nan
79461;BME280;68929;42.666;23.324;2023-09-30T04:34:04;94983.63;;;18.19;nan
79461;BME280;68929;42.666;23.324;2023-09-30T04:36:30;94972.03;;;18.08;nan
79461;BME280;68929;42.666;23.324;2023-09-30T04:38:56;94982.22;;;18.11;nan
79461;BME280;68929;42.666;23.324;2023-09-30T04:41:21;94969.19;;;17.93;nan
79461;BME280;68929;42.666;23.324;2023-09-30T04:43:47;94967.72;;;18.07;nan
79461;BME280;68929;42.666;23.324;2023-09-30T04:46:13;94952.59;;;17.96;nan
79461;BME280;68929;42.666;23.324;2023-09-30T04:48:39;94979.34;;;17.96;nan
79461;BME280;68929;42.666;23.324;2023-09-30T04:51:08;94967.06;;;17.95;nan
79461;BME280;68929;42.666;23.324;2023-09-30T04:53:34;94991.16;;;18.00;nan
79461;BME280;68929;42.666;23.324;2023-09-30T04:55:59;94986.75;;;18.11;nan
79461;BME280;68929;42.666;23.324;2023-09-30T04:58:25;94986.25;;;18.14;nan
79461;BME280;68929;42.666;23.324;2023-09-30T05:00:50;94971.22;;;17.86;nan
79461;BME280;68929;42.666;23.324;2023-09-30T05:03:16;94966.44;;;17.88;nan
79461;BME280;68929;42.666;23.324;2023-09-30T05:05:41;94994.41;;;18.02;nan
79461;BME280;68929;42.666;23.324;2023-09-30T05:08:07;95003.19;;;17.54;nan
79461;BME280;68929;42.666;23.324;2023-09-30T05:10:33;94971.44;;;17.20;nan
79461;BME280;68929;42.666;23.324;2023-09-30T05:12:59;94989.22;;;16.59;nan
79461;BME280;68929;42.666;23.324;2023-09-30T05:15:24;94991.00;;;16.70;nan
79461;BME280;68929;42.666;23.324;2023-09-30T05:17:50;94982.47;;;16.90;nan
79461;BME280;68929;42.666;23.324;2023-09-30T05:20:16;95004.09;;;16.89;nan
79461;BME280;68929;42.666;23.324;2023-09-30T05:22:43;95000.53;;;16.83;nan
79461;BME280;68929;42.666;23.324;2023-09-30T05:25:15;94961.53;;;16.82;nan
79461;BME280;68929;42.666;23.324;2023-09-30T05:27:44;94980.22;;;16.99;nan
79461;BME280;68929;42.666;23.324;2023-09-30T05:30:10;95003.19;;;17.00;nan
79461;BME280;68929;42.666;23.324;2023-09-30T05:32:37;94998.00;;;17.10;nan
79461;BME280;68929;42.666;23.324;2023-09-30T05:35:05;94997.06;;;16.83;nan
79461;BME280;68929;42.666;23.324;2023-09-30T05:37:31;95011.53;;;17.03;nan
79461;BME280;68929;42.666;23.324;2023-09-30T05:39:56;95016.31;;;16.85;nan
79461;BME280;68929;42.666;23.324;2023-09-30T05:42:21;95026.91;;;16.79;nan
79461;BME280;68929;42.666;23.324;2023-09-30T05:44:47;95010.84;;;17.13;nan
79461;BME280;68929;42.666;23.324;2023-09-30T05:47:13;95002.28;;;16.94;nan
79461;BME280;68929;42.666;23.324;2023-09-30T05:49:40;95021.25;;;16.93;nan
79461;BME280;68929;42.666;23.324;2023-09-30T05:52:06;95004.56;;;16.86;nan
79461;BME280;68929;42.666;23.324;2023-09-30T05:54:32;95010.84;;;17.13;nan
79461;BME280;68929;42.666;23.324;2023-09-30T05:56:57;95018.44;;;17.54;nan
79461;BME280;68929;42.666;23.324;2023-09-30T05:59:22;95028.13;;;17.60;nan
79461;BME280;68929;42.666;23.324;2023-09-30T06:01:51;95002.69;;;17.03;nan
79461;BME280;68929;42.666;23.324;2023-09-30T06:04:19;95010.88;;;16.79;nan
79461;BME280;68929;42.666;23.324;2023-09-30T06:06:46;95032.91;;;16.87;nan
79461;BME280;68929;42.666;23.324;2023-09-30T06:09:12;95033.16;;;16.85;nan
79461;BME280;68929;42.666;23.324;2023-09-30T06:11:39;95022.47;;;16.85;nan
79461;BME280;68929;42.666;23.324;2023-09-30T06:14:06;95012.00;;;16.84;nan
79461;BME280;68929;42.666;23.324;2023-09-30T06:16:36;95043.41;;;16.76;nan
79461;BME280;68929;42.666;23.324;2023-09-30T06:19:01;95037.25;;;16.59;nan
79461;BME280;68929;42.666;23.324;2023-09-30T06:21:27;95024.94;;;16.58;nan
79461;BME280;68929;42.666;23.324;2023-09-30T06:23:56;95046.50;;;16.68;nan
79461;BME280;68929;42.666;23.324;2023-09-30T06:26:21;95033.84;;;16.64;nan
79461;BME280;68929;42.666;23.324;2023-09-30T06:28:47;95040.41;;;16.73;nan
79461;BME280;68929;42.666;23.324;2023-09-30T06:31:13;95045.41;;;17.36;nan
79461;BME280;68929;42.666;23.324;2023-09-30T06:33:39;95031.47;;;17.34;nan
79461;BME280;68929;42.666;23.324;2023-09-30T06:36:12;95039.25;;;17.52;nan
79461;BME280;68929;42.666;23.324;2023-09-30T06:38:40;95048.03;;;17.69;nan
79461;BME280;68929;42.666;23.324;2023-09-30T06:41:07;95039.84;;;17.97;nan
79461;BME280;68929;42.666;23.324;2023-09-30T06:43:33;95020.50;;;18.17;nan
79461;BME280;68929;42.666;23.324;2023-09-30T06:46:05;95037.19;;;18.02;nan
79461;BME280;68929;42.666;23.324;2023-09-30T06:48:37;95027.28;;;17.76;nan
79461;BME280;68929;42.666;23.324;2023-09-30T06:51:05;95023.97;;;17.69;nan
79461;BME280;68929;42.666;23.324;2023-09-30T06:53:31;95047.53;;;17.72;nan
79461;BME280;68929;42.666;23.324;2023-09-30T06:56:04;95044.38;;;17.75;nan
79461;BME280;68929;42.666;23.324;2023-09-30T06:58:30;95040.78;;;17.65;nan
79461;BME280;68929;42.666;23.324;2023-09-30T07:00:55;95059.84;;;17.73;nan
79461;BME280;68929;42.666;23.324;2023-09-30T07:03:20;95051.25;;;17.71;nan
79461;BME280;68929;42.666;23.324;2023-09-30T07:05:46;95054.25;;;17.75;nan
79461;BME280;68929;42.666;23.324;2023-09-30T07:08:16;95059.00;;;17.89;nan
79461;BME280;68929;42.666;23.324;2023-09-30T07:10:41;95053.19;;;17.76;nan
79461;BME280;68929;42.666;23.324;2023-09-30T07:13:07;95054.78;;;17.93;nan
79461;BME280;68929;42.666;23.324;2023-09-30T07:15:32;95057.41;;;18.15;nan
79461;BME280;68929;42.666;23.324;2023-09-30T07:17:58;95050.75;;;18.17;nan
79461;BME280;68929;42.666;23.324;2023-09-30T07:20:23;95047.25;;;18.38;nan
79461;BME280;68929;42.666;23.324;2023-09-30T07:22:49;95042.03;;;18.49;nan
79461;BME280;68929;42.666;23.324;2023-09-30T07:25:14;95061.69;;;18.59;nan
79461;BME280;68929;42.666;23.324;2023-09-30T07:27:43;95041.53;;;18.52;nan
79461;BME280;68929;42.666;23.324;2023-09-30T07:30:08;95050.19;;;18.90;nan
79461;BME280;68929;42.666;23.324;2023-09-30T07:32:35;95053.41;;;18.92;nan
79461;BME280;68929;42.666;23.324;2023-09-30T07:35:00;95058.06;;;19.02;nan
79461;BME280;68929;42.666;23.324;2023-09-30T07:37:26;95072.16;;;19.24;nan
79461;BME280;68929;42.666;23.324;2023-09-30T07:39:52;95064.41;;;19.28;nan
79461;BME280;68929;42.666;23.324;2023-09-30T07:42:17;95069.53;;;19.29;nan
79461;BME280;68929;42.666;23.324;2023-09-30T07:44:42;95068.00;;;19.38;nan
79461;BME280;68929;42.666;23.324;2023-09-30T07:47:08;95047.09;;;19.35;nan
79461;BME280;68929;42.666;23.324;2023-09-30T07:49:38;95060.13;;;19.63;nan
79461;BME280;68929;42.666;23.324;2023-09-30T07:52:03;95070.91;;;19.73;nan
79461;BME280;68929;42.666;23.324;2023-09-30T07:54:29;95073.13;;;19.81;nan
79461;BME280;68929;42.666;23.324;2023-09-30T07:56:54;95054.69;;;20.00;nan
79461;BME280;68929;42.666;23.324;2023-09-30T07:59:22;95040.50;;;20.05;nan
79461;BME280;68929;42.666;23.324;2023-09-30T08:01:48;95057.81;;;20.39;nan
79461;BME280;68929;42.666;23.324;2023-09-30T08:04:17;95083.13;;;20.63;nan
79461;BME280;68929;42.666;23.324;2023-09-30T08:06:43;95070.50;;;20.58;nan
79461;BME280;68929;42.666;23.324;2023-09-30T08:09:08;95064.59;;;20.56;nan
79461;BME280;68929;42.666;23.324;2023-09-30T08:11:37;95046.03;;;20.55;nan
79461;BME280;68929;42.666;23.324;2023-09-30T08:14:05;95058.66;;;20.59;nan
79461;BME280;68929;42.666;23.324;2023-09-30T08:16:35;95054.69;;;20.77;nan
79461;BME280;68929;42.666;23.324;2023-09-30T08:19:00;95064.34;;;20.88;nan
79461;BME280;68929;42.666;23.324;2023-09-30T08:21:26;95068.72;;;21.04;nan
79461;BME280;68929;42.666;23.324;2023-09-30T08:23:51;95054.94;;;21.01;nan
79461;BME280;68929;42.666;23.324;2023-09-30T08:26:17;95055.53;;;21.18;nan
79461;BME280;68929;42.666;23.324;2023-09-30T08:28:42;95032.69;;;21.20;nan
79461;BME280;68929;42.666;23.324;2023-09-30T08:31:08;95042.88;;;21.43;nan
79461;BME280;68929;42.666;23.324;2023-09-30T08:33:34;95071.91;;;21.52;nan
79461;BME280;68929;42.666;23.324;2023-09-30T08:36:04;95049.03;;;21.59;nan
79461;BME280;68929;42.666;23.324;2023-09-30T08:38:35;95061.13;;;21.62;nan
79461;BME280;68929;42.666;23.324;2023-09-30T08:41:01;95067.59;;;21.66;nan
79461;BME280;68929;42.666;23.324;2023-09-30T08:43:27;95058.94;;;21.74;nan
79461;BME280;68929;42.666;23.324;2023-09-30T08:45:56;95057.88;;;21.70;nan
79461;BME280;68929;42.666;23.324;2023-09-30T08:48:23;95052.50;;;21.70;nan
79461;BME280;68929;42.666;23.324;2023-09-30T08:50:51;95055.72;;;21.92;nan
79461;BME280;68929;42.666;23.324;2023-09-30T08:53:18;95025.31;;;21.81;nan
79461;BME280;68929;42.666;23.324;2023-09-30T08:55:46;95047.13;;;21.90;nan
79461;BME280;68929;42.666;23.324;2023-09-30T08:58:14;95042.47;;;22.10;nan
79461;BME280;68929;42.666;23.324;2023-09-30T09:00:42;95038.91;;;22.25;nan
79461;BME280;68929;42.666;23.324;2023-09-30T09:03:07;95052.84;;;22.37;nan
79461;BME280;68929;42.666;23.324;2023-09-30T09:05:34;95044.59;;;22.18;nan
79461;BME280;68929;42.666;23.324;2023-09-30T09:07:59;95043.69;;;22.38;nan
79461;BME280;68929;42.666;23.324;2023-09-30T09:10:24;95033.91;;;22.52;nan
79461;BME280;68929;42.666;23.324;2023-09-30T09:12:57;95043.75;;;22.82;nan
79461;BME280;68929;42.666;23.324;2023-09-30T09:15:25;95016.66;;;22.58;nan
79461;BME280;68929;42.666;23.324;2023-09-30T09:17:51;95028.31;;;22.92;nan
79461;BME280;68929;42.666;23.324;2023-09-30T09:20:19;95040.19;;;23.20;nan
79461;BME280;68929;42.666;23.324;2023-09-30T09:22:47;95042.00;;;23.35;nan
79461;BME280;68929;42.666;23.324;2023-09-30T09:25:13;95027.44;;;23.36;nan
79461;BME280;68929;42.666;23.324;2023-09-30T09:27:38;95030.88;;;23.41;nan
79461;BME280;68929;42.666;23.324;2023-09-30T09:30:27;95040.56;;;23.71;nan
79461;BME280;68929;42.666;23.324;2023-09-30T09:33:03;95027.81;;;23.76;nan
79461;BME280;68929;42.666;23.324;2023-09-30T09:35:30;95031.34;;;24.01;nan
79461;BME280;68929;42.666;23.324;2023-09-30T09:38:05;95021.31;;;24.01;nan
79461;BME280;68929;42.666;23.324;2023-09-30T09:40:36;95035.97;;;23.95;nan
79461;BME280;68929;42.666;23.324;2023-09-30T09:43:03;95014.06;;;23.78;nan
79461;BME280;68929;42.666;23.324;2023-09-30T09:45:36;95010.25;;;24.03;nan
79461;BME280;68929;42.666;23.324;2023-09-30T09:48:06;95008.34;;;24.03;nan
79461;BME280;68929;42.666;23.324;2023-09-30T09:50:32;95012.97;;;24.03;nan
79461;BME280;68929;42.666;23.324;2023-09-30T09:52:58;95000.75;;;24.10;nan
79461;BME280;68929;42.666;23.324;2023-09-30T09:55:28;95026.88;;;24.38;nan
79461;BME280;68929;42.666;23.324;2023-09-30T09:57:54;95024.06;;;24.43;nan
79461;BME280;68929;42.666;23.324;2023-09-30T10:00:24;95003.06;;;24.40;nan
79461;BME280;68929;42.666;23.324;2023-09-30T10:02:50;94996.03;;;24.39;nan
79461;BME280;68929;42.666;23.324;2023-09-30T10:05:17;95015.59;;;24.74;nan
79461;BME280;68929;42.666;23.324;2023-09-30T10:07:54;95015.88;;;24.91;nan
79461;BME280;68929;42.666;23.324;2023-09-30T10:10:21;94982.22;;;24.59;nan
79461;BME280;68929;42.666;23.324;2023-09-30T10:12:47;95002.09;;;25.06;nan
79461;BME280;68929;42.666;23.324;2023-09-30T10:15:37;95002.25;;;24.96;nan
79461;BME280;68929;42.666;23.324;2023-09-30T10:18:05;94986.88;;;24.78;nan
79461;BME280;68929;42.666;23.324;2023-09-30T10:20:39;94994.25;;;24.91;nan
79461;BME280;68929;42.666;23.324;2023-09-30T10:23:28;94980.59;;;24.82;nan
79461;BME280;68929;42.666;23.324;2023-09-30T10:31:21;94965.09;;;25.33;nan
79461;BME280;68929;42.666;23.324;2023-09-30T10:36:28;94987.16;;;25.59;nan
79461;BME280;68929;42.666;23.324;2023-09-30T10:39:00;94951.22;;;25.08;nan
79461;BME280;68929;42.666;23.324;2023-09-30T10:46:47;94971.97;;;25.45;nan
79461;BME280;68929;42.666;23.324;2023-09-30T10:49:31;94971.16;;;25.12;nan
79461;BME280;68929;42.666;23.324;2023-09-30T10:51:59;94965.28;;;24.73;nan
79461;BME280;68929;42.666;23.324;2023-09-30T10:54:29;94967.25;;;25.18;nan
79461;BME280;68929;42.666;23.324;2023-09-30T10:56:56;94971.59;;;25.51;nan
79461;BME280;68929;42.666;23.324;2023-09-30T10:59:31;94946.94;;;25.80;nan
79461;BME280;68929;42.666;23.324;2023-09-30T11:01:57;94941.00;;;25.64;nan
79461;BME280;68929;42.666;23.324;2023-09-30T11:04:23;94947.44;;;25.82;nan
79461;BME280;68929;42.666;23.324;2023-09-30T11:06:48;94957.38;;;25.86;nan
79461;BME280;68929;42.666;23.324;2023-09-30T11:09:17;94959.25;;;25.99;nan
79461;BME280;68929;42.666;23.324;2023-09-30T11:16:50;94940.69;;;26.34;nan
79461;BME280;68929;42.666;23.324;2023-09-30T11:19:16;94942.81;;;26.23;nan
79461;BME280;68929;42.666;23.324;2023-09-30T11:21:43;94934.28;;;25.89;nan
79461;BME280;68929;42.666;23.324;2023-09-30T11:24:09;94934.00;;;26.18;nan
79461;BME280;68929;42.666;23.324;2023-09-30T11:26:35;94951.25;;;26.22;nan
79461;BME280;68929;42.666;23.324;2023-09-30T11:29:09;94925.97;;;25.99;nan
79461;BME280;68929;42.666;23.324;2023-09-30T11:31:43;94923.53;;;26.25;nan
79461;BME280;68929;42.666;23.324;2023-09-30T11:34:09;94940.84;;;26.51;nan
79461;BME280;68929;42.666;23.324;2023-09-30T11:36:41;94945.59;;;27.03;nan
79461;BME280;68929;42.666;23.324;2023-09-30T11:39:24;94941.28;;;27.33;nan
79461;BME280;68929;42.666;23.324;2023-09-30T11:41:50;94917.69;;;26.67;nan
79461;BME280;68929;42.666;23.324;2023-09-30T11:44:18;94923.50;;;27.40;nan
79461;BME280;68929;42.666;23.324;2023-09-30T11:46:55;94936.50;;;27.60;nan
79461;BME280;68929;42.666;23.324;2023-09-30T11:51:54;94936.66;;;27.95;nan
79461;BME280;68929;42.666;23.324;2023-09-30T11:54:19;94931.31;;;28.12;nan
79461;BME280;68929;42.666;23.324;2023-09-30T11:56:47;94913.03;;;27.64;nan
79461;BME280;68929;42.666;23.324;2023-09-30T11:59:13;94905.47;;;28.74;nan
79461;BME280;68929;42.666;23.324;2023-09-30T12:01:39;94913.63;;;28.91;nan
79461;BME280;68929;42.666;23.324;2023-09-30T12:04:05;94890.56;;;29.61;nan
79461;BME280;68929;42.666;23.324;2023-09-30T12:06:31;94914.59;;;30.75;nan
79461;BME280;68929;42.666;23.324;2023-09-30T12:09:00;94911.22;;;31.77;nan
79461;BME280;68929;42.666;23.324;2023-09-30T12:11:26;94893.34;;;31.91;nan
79461;BME280;68929;42.666;23.324;2023-09-30T12:13:51;94909.66;;;33.43;nan
79461;BME280;68929;42.666;23.324;2023-09-30T12:16:17;94909.19;;;33.69;nan
79461;BME280;68929;42.666;23.324;2023-09-30T12:18:45;94894.88;;;33.32;nan
79461;BME280;68929;42.666;23.324;2023-09-30T12:21:11;94895.28;;;34.40;nan
79461;BME280;68929;42.666;23.324;2023-09-30T12:23:39;94887.81;;;33.31;nan
79461;BME280;68929;42.666;23.324;2023-09-30T12:26:07;94892.97;;;32.93;nan
79461;BME280;68929;42.666;23.324;2023-09-30T12:28:33;94886.84;;;30.73;nan
79461;BME280;68929;42.666;23.324;2023-09-30T12:31:01;94890.13;;;30.46;nan
79461;BME280;68929;42.666;23.324;2023-09-30T12:33:32;94890.28;;;29.54;nan
79461;BME280;68929;42.666;23.324;2023-09-30T12:35:58;94894.22;;;28.16;nan
79461;BME280;68929;42.666;23.324;2023-09-30T12:38:24;94884.63;;;28.10;nan
79461;BME280;68929;42.666;23.324;2023-09-30T12:40:51;94872.91;;;29.67;nan
79461;BME280;68929;42.666;23.324;2023-09-30T12:43:19;94884.00;;;30.91;nan
79461;BME280;68929;42.666;23.324;2023-09-30T12:45:47;94869.88;;;31.66;nan
79461;BME280;68929;42.666;23.324;2023-09-30T12:48:16;94884.56;;;32.98;nan
79461;BME280;68929;42.666;23.324;2023-09-30T12:50:43;94873.97;;;33.12;nan
79461;BME280;68929;42.666;23.324;2023-09-30T12:53:13;94875.22;;;32.47;nan
79461;BME280;68929;42.666;23.324;2023-09-30T12:55:39;94875.38;;;30.47;nan
79461;BME280;68929;42.666;23.324;2023-09-30T12:58:04;94862.25;;;29.91;nan
79461;BME280;68929;42.666;23.324;2023-09-30T13:00:31;94829.59;;;30.86;nan
79461;BME280;68929;42.666;23.324;2023-09-30T13:02:58;94869.88;;;31.78;nan
79461;BME280;68929;42.666;23.324;2023-09-30T13:05:24;94859.25;;;32.37;nan
79461;BME280;68929;42.666;23.324;2023-09-30T13:07:50;94848.66;;;33.46;nan
79461;BME280;68929;42.666;23.324;2023-09-30T13:10:15;94859.16;;;34.73;nan
79461;BME280;68929;42.666;23.324;2023-09-30T13:12:41;94847.69;;;34.17;nan
79461;BME280;68929;42.666;23.324;2023-09-30T13:15:07;94858.06;;;34.08;nan
79461;BME280;68929;42.666;23.324;2023-09-30T13:17:34;94855.75;;;33.63;nan
79461;BME280;68929;42.666;23.324;2023-09-30T13:19:59;94867.06;;;34.24;nan
79461;BME280;68929;42.666;23.324;2023-09-30T13:22:24;94857.31;;;34.80;nan
79461;BME280;68929;42.666;23.324;2023-09-30T13:24:50;94850.03;;;33.83;nan
79461;BME280;68929;42.666;23.324;2023-09-30T13:27:16;94860.97;;;31.57;nan
79461;BME280;68929;42.666;23.324;2023-09-30T13:29:42;94851.66;;;31.13;nan